Time;durP1;ratioP1;P1;durP2;ratioP2;P2;SDS_P1;SDS_P2;PMS_P1;PMS_P2;Temp;Humidity;BMP_temperature;BMP_pressure;BME280_temperature;BME280_humidity;BME280_pressure;Samples;Min_cycle;Max_cycle;Signal;HPM_P1;HPM_P2
2022/06/01 00:01:00;;;;;;;4.10;3.47;;;17.20;57.20;;;;;;4923682;29;20032;-85
2022/06/01 00:03:30;;;;;;;5.10;3.80;;;17.20;57.20;;;;;;4939297;29;20028;-84
2022/06/01 00:05:55;;;;;;;3.97;3.38;;;17.20;57.30;;;;;;4939012;29;20169;-84
2022/06/01 00:08:22;;;;;;;3.97;3.58;;;17.10;57.20;;;;;;4939123;29;20056;-84
2022/06/01 00:10:49;;;;;;;4.80;3.95;;;17.10;57.30;;;;;;4939059;29;20035;-84
2022/06/01 00:13:14;;;;;;;4.88;4.00;;;17.10;57.30;;;;;;4938746;29;20031;-84
2022/06/01 00:15:40;;;;;;;4.22;3.38;;;17.10;57.30;;;;;;4923557;29;20465;-84
2022/06/01 00:18:06;;;;;;;4.55;3.78;;;17.10;57.40;;;;;;4923387;29;20469;-85
2022/06/01 00:20:33;;;;;;;4.82;3.83;;;17.10;57.40;;;;;;4940436;29;20110;-84
2022/06/01 00:22:58;;;;;;;4.95;3.97;;;17.10;57.50;;;;;;4953109;28;20051;-85
2022/06/01 00:25:24;;;;;;;4.57;3.50;;;17.00;57.50;;;;;;4946242;28;20027;-85
2022/06/01 00:27:51;;;;;;;4.63;3.97;;;17.00;57.50;;;;;;4978393;28;20514;-86
2022/06/01 00:30:17;;;;;;;4.68;3.95;;;17.00;57.60;;;;;;4961963;28;20033;-85
2022/06/01 00:32:44;;;;;;;4.13;3.53;;;16.90;57.50;;;;;;4961230;28;20034;-86
2022/06/01 00:35:12;;;;;;;5.32;4.05;;;16.90;57.60;;;;;;4976909;28;20062;-86
2022/06/01 00:37:38;;;;;;;4.32;3.67;;;16.90;57.60;;;;;;4977305;28;20375;-85
2022/06/01 00:40:06;;;;;;;4.47;3.83;;;16.90;57.70;;;;;;4977156;28;20046;-85
2022/06/01 00:42:33;;;;;;;4.38;3.78;;;16.90;57.70;;;;;;4961572;28;20080;-85
2022/06/01 00:44:59;;;;;;;7.13;4.20;;;16.80;57.60;;;;;;4976854;28;20038;-86
2022/06/01 00:47:27;;;;;;;4.80;4.18;;;16.80;57.70;;;;;;4961595;28;20078;-86
2022/06/01 00:50:06;;;;;;;4.35;3.85;;;16.80;57.70;;;;;;4976964;28;20027;-86
2022/06/01 00:52:37;;;;;;;4.75;4.03;;;16.80;57.80;;;;;;4978432;28;20122;-86
2022/06/01 00:55:08;;;;;;;5.00;4.13;;;16.80;57.80;;;;;;4961060;28;20069;-86
2022/06/01 00:57:34;;;;;;;4.70;4.03;;;16.80;57.80;;;;;;4959777;28;20033;-86
2022/06/01 01:00:04;;;;;;;4.40;3.83;;;16.80;57.90;;;;;;4961245;28;20026;-86
2022/06/01 01:02:30;;;;;;;4.38;3.72;;;16.70;57.90;;;;;;4961201;28;20058;-86
2022/06/01 01:04:57;;;;;;;4.85;4.25;;;16.70;57.90;;;;;;4976369;28;20582;-86
2022/06/01 01:07:26;;;;;;;4.28;3.88;;;16.70;57.90;;;;;;4976769;28;20081;-86
2022/06/01 01:09:52;;;;;;;4.70;3.90;;;16.60;58.00;;;;;;4960325;28;20110;-86
2022/06/01 01:12:18;;;;;;;4.38;3.95;;;16.60;57.90;;;;;;4976521;28;20506;-86
2022/06/01 01:14:45;;;;;;;4.60;4.10;;;16.60;58.00;;;;;;4961066;28;20030;-85
2022/06/01 01:17:12;;;;;;;4.80;4.05;;;16.60;58.10;;;;;;4960694;28;20054;-86
2022/06/01 01:19:37;;;;;;;5.40;4.15;;;16.60;58.00;;;;;;4961435;28;20027;-86
2022/06/01 01:22:18;;;;;;;4.75;4.10;;;16.60;58.10;;;;;;4976349;28;20060;-87
2022/06/01 01:25:09;;;;;;;5.85;4.65;;;16.50;58.20;;;;;;4975996;28;20034;-87
2022/06/01 01:27:35;;;;;;;5.28;4.22;;;16.50;58.20;;;;;;4979919;28;20102;-86
2022/06/01 01:30:01;;;;;;;4.82;4.30;;;16.50;58.10;;;;;;4945483;28;20498;-86
2022/06/01 01:32:26;;;;;;;5.03;4.32;;;16.50;58.20;;;;;;4960085;28;20468;-86
2022/06/01 01:34:52;;;;;;;4.75;4.03;;;16.50;58.20;;;;;;4977506;28;20383;-86
2022/06/01 01:37:25;;;;;;;4.75;4.07;;;16.50;58.20;;;;;;4975943;28;20026;-85
2022/06/01 01:39:52;;;;;;;4.90;4.40;;;16.50;58.30;;;;;;4977854;28;20027;-85
2022/06/01 01:42:19;;;;;;;5.00;4.22;;;16.40;58.30;;;;;;4960044;28;20447;-85
2022/06/01 01:45:07;;;;;;;4.75;4.10;;;16.40;58.30;;;;;;4959816;28;20023;-85
2022/06/01 01:47:38;;;;;;;5.30;4.30;;;16.40;58.40;;;;;;4976006;28;20030;-85
2022/06/01 01:50:09;;;;;;;5.00;4.47;;;16.40;58.30;;;;;;4975866;28;20022;-85
2022/06/01 01:52:36;;;;;;;5.20;4.13;;;16.40;58.40;;;;;;4960424;28;20490;-85
2022/06/01 01:55:41;;;;;;;5.15;4.63;;;16.40;58.40;;;;;;4959925;28;20364;-85
2022/06/01 01:58:43;;;;;;;4.73;3.90;;;16.30;58.60;;;;;;4975696;28;20019;-84
2022/06/01 02:01:15;;;;;;;4.72;3.83;;;16.30;58.50;;;;;;4960316;28;20036;-84
2022/06/01 02:03:57;;;;;;;4.30;3.70;;;16.30;58.40;;;;;;4975809;28;20086;-84
2022/06/01 02:06:37;;;;;;;4.78;3.97;;;16.30;58.60;;;;;;4959088;28;20085;-84
2022/06/01 02:09:08;;;;;;;4.43;3.85;;;16.30;58.70;;;;;;4959238;28;20061;-84
2022/06/01 02:14:53;;;;;;;4.85;4.03;;;16.20;58.70;;;;;;4975155;28;20045;-85
2022/06/01 02:17:28;;;;;;;4.05;3.28;;;16.20;58.70;;;;;;4975484;28;20367;-85
2022/06/01 02:20:15;;;;;;;5.10;3.90;;;16.20;58.70;;;;;;4975647;28;20379;-84
2022/06/01 02:22:42;;;;;;;4.50;3.70;;;16.20;58.70;;;;;;4975093;28;20053;-85
2022/06/01 02:25:10;;;;;;;4.28;3.60;;;16.20;58.80;;;;;;4975249;28;20034;-85
2022/06/01 02:27:38;;;;;;;4.18;3.45;;;16.20;58.80;;;;;;4958922;28;20456;-85
2022/06/01 02:30:09;;;;;;;5.00;3.75;;;16.20;58.80;;;;;;4959343;28;20027;-86
2022/06/01 02:32:38;;;;;;;4.47;3.28;;;16.10;58.80;;;;;;4975211;28;20054;-85
2022/06/01 02:35:07;;;;;;;3.88;3.20;;;16.10;58.90;;;;;;4975549;28;20049;-86
2022/06/01 02:37:37;;;;;;;4.10;3.33;;;16.10;58.90;;;;;;4974899;28;20035;-86
2022/06/01 02:40:07;;;;;;;3.95;3.30;;;16.10;58.90;;;;;;4975606;28;20026;-86
2022/06/01 02:42:33;;;;;;;4.05;3.42;;;16.10;58.90;;;;;;4959863;28;20093;-86
2022/06/01 02:45:04;;;;;;;3.92;3.30;;;16.10;58.90;;;;;;4974862;28;20031;-85
2022/06/01 02:47:32;;;;;;;3.97;3.20;;;16.10;59.00;;;;;;4975120;28;20436;-85
2022/06/01 02:49:59;;;;;;;3.63;3.30;;;16.10;59.00;;;;;;4958798;28;20466;-84
2022/06/01 02:52:25;;;;;;;3.38;3.00;;;16.10;59.10;;;;;;4958870;28;20038;-84
2022/06/01 02:54:52;;;;;;;3.72;3.17;;;16.10;59.10;;;;;;4959274;28;20081;-84
2022/06/01 02:57:18;;;;;;;4.57;3.22;;;16.00;59.00;;;;;;4958964;28;20345;-84
2022/06/01 02:59:44;;;;;;;3.78;3.13;;;16.00;59.10;;;;;;4959052;28;20027;-85
2022/06/01 03:02:10;;;;;;;3.60;2.70;;;16.00;59.10;;;;;;4975156;28;20451;-85
2022/06/01 03:04:38;;;;;;;3.10;2.70;;;16.00;59.10;;;;;;4975818;28;20089;-85
2022/06/01 03:07:05;;;;;;;3.60;3.08;;;16.00;59.20;;;;;;4975073;28;20372;-85
2022/06/01 03:09:31;;;;;;;4.18;3.33;;;16.00;59.20;;;;;;4974830;28;20058;-85
2022/06/01 03:11:57;;;;;;;3.72;3.03;;;16.00;59.30;;;;;;4974712;28;20027;-85
2022/06/01 03:14:23;;;;;;;3.70;3.08;;;16.00;59.30;;;;;;4975816;28;20105;-85
2022/06/01 03:16:49;;;;;;;3.85;3.17;;;16.00;59.30;;;;;;4943302;28;20447;-86
2022/06/01 03:19:14;;;;;;;4.03;3.33;;;15.90;59.30;;;;;;4975068;28;20116;-85
2022/06/01 03:21:40;;;;;;;3.30;2.83;;;15.90;59.30;;;;;;4946039;28;20051;-86
2022/06/01 03:24:09;;;;;;;4.18;3.15;;;15.90;59.30;;;;;;4979873;28;20042;-86
2022/06/01 03:26:35;;;;;;;4.85;3.10;;;15.90;59.40;;;;;;4962640;28;20031;-86
2022/06/01 03:29:02;;;;;;;3.47;2.88;;;15.90;59.40;;;;;;4978567;28;20114;-87
2022/06/01 03:31:28;;;;;;;3.80;3.08;;;15.90;59.40;;;;;;4978391;28;20487;-86
2022/06/01 03:33:54;;;;;;;3.65;3.00;;;15.90;59.40;;;;;;4962018;28;20077;-86
2022/06/01 03:36:21;;;;;;;3.92;3.30;;;15.90;59.40;;;;;;4979563;28;20019;-86
2022/06/01 03:38:47;;;;;;;3.63;3.08;;;15.90;59.40;;;;;;4978574;28;20022;-86
2022/06/01 03:41:13;;;;;;;3.70;2.95;;;15.90;59.50;;;;;;4962182;28;20466;-86
2022/06/01 03:46:23;;;;;;;4.50;3.08;;;15.90;59.50;;;;;;4978332;28;20375;-85
2022/06/01 03:48:49;;;;;;;4.00;3.10;;;15.80;59.40;;;;;;4962361;28;20019;-86
2022/06/01 03:51:15;;;;;;;3.83;3.13;;;15.80;59.50;;;;;;4978145;28;20085;-85
2022/06/01 03:53:41;;;;;;;3.95;3.17;;;15.80;59.50;;;;;;4978279;28;20487;-86
2022/06/01 03:56:08;;;;;;;3.50;2.97;;;15.80;59.50;;;;;;4962367;28;20034;-86
2022/06/01 03:58:35;;;;;;;3.47;2.83;;;15.70;59.50;;;;;;4962361;28;20094;-85
2022/06/01 04:01:02;;;;;;;3.47;3.10;;;15.70;59.60;;;;;;4962434;28;20046;-86
2022/06/01 04:03:28;;;;;;;3.75;2.92;;;15.80;59.60;;;;;;4962120;28;20522;-86
2022/06/01 04:05:54;;;;;;;3.47;2.75;;;15.70;59.60;;;;;;4977839;28;20081;-85
2022/06/01 04:08:20;;;;;;;3.53;2.80;;;15.70;59.60;;;;;;4961650;28;20035;-86
2022/06/01 04:10:46;;;;;;;3.40;2.70;;;15.70;59.60;;;;;;4945698;28;20035;-86
2022/06/01 04:13:14;;;;;;;3.83;2.97;;;15.70;59.60;;;;;;4962204;28;20162;-86
2022/06/01 04:15:40;;;;;;;3.85;2.85;;;15.70;59.60;;;;;;4977603;28;20100;-86
2022/06/01 04:18:06;;;;;;;3.42;2.85;;;15.70;59.70;;;;;;4961728;28;20019;-85
2022/06/01 04:20:32;;;;;;;4.30;2.85;;;15.70;59.70;;;;;;4978798;28;20026;-87
2022/06/01 04:23:00;;;;;;;4.20;2.90;;;15.70;59.70;;;;;;4977314;28;20043;-87
2022/06/01 04:25:27;;;;;;;3.47;2.90;;;15.60;59.70;;;;;;4961133;28;20027;-86
2022/06/01 04:27:53;;;;;;;3.80;2.90;;;15.60;60.30;;;;;;4975691;28;20129;-84
2022/06/01 04:30:20;;;;;;;4.07;3.28;;;15.60;59.70;;;;;;4974487;28;20154;-86
2022/06/01 04:32:48;;;;;;;3.47;3.00;;;15.60;59.80;;;;;;4974634;28;20046;-85
2022/06/01 04:35:14;;;;;;;4.15;3.17;;;15.60;59.80;;;;;;4977210;28;20039;-84
2022/06/01 04:37:40;;;;;;;3.95;3.35;;;15.60;59.80;;;;;;4975061;28;20015;-85
2022/06/01 04:40:06;;;;;;;3.95;3.40;;;15.60;59.90;;;;;;4966215;28;20162;-84
2022/06/01 04:42:33;;;;;;;4.85;3.97;;;15.50;59.80;;;;;;4941877;28;20037;-85
2022/06/01 04:44:59;;;;;;;5.00;4.00;;;15.60;59.80;;;;;;4957948;28;20027;-85
2022/06/01 04:47:25;;;;;;;4.72;3.80;;;15.50;59.80;;;;;;4975164;28;20033;-85
2022/06/01 04:49:51;;;;;;;5.03;4.07;;;15.50;59.80;;;;;;4941319;28;20031;-85
2022/06/01 04:52:17;;;;;;;4.43;3.60;;;15.50;59.90;;;;;;4984012;28;20110;-84
2022/06/01 04:54:43;;;;;;;4.45;3.80;;;15.50;59.90;;;;;;4973350;28;20029;-83
2022/06/01 04:57:09;;;;;;;5.00;4.10;;;15.50;59.90;;;;;;4957617;28;20027;-84
2022/06/01 04:59:34;;;;;;;5.28;4.18;;;15.50;60.00;;;;;;4975829;28;20114;-88
2022/06/01 05:02:01;;;;;;;4.43;3.90;;;15.50;60.00;;;;;;4957772;28;20077;-83
2022/06/01 05:04:28;;;;;;;4.78;4.10;;;15.50;60.00;;;;;;4980251;28;20062;-88
2022/06/01 05:06:58;;;;;;;5.40;4.30;;;15.50;60.00;;;;;;4977612;28;20089;-87
2022/06/01 05:09:24;;;;;;;5.72;4.43;;;15.50;60.10;;;;;;4973142;28;20530;-85
2022/06/01 05:11:50;;;;;;;5.63;4.65;;;15.50;60.10;;;;;;4967093;28;20018;-86
2022/06/01 05:14:16;;;;;;;5.78;4.80;;;15.50;60.10;;;;;;4959205;28;20030;-86
2022/06/01 05:16:43;;;;;;;5.65;4.57;;;15.50;60.20;;;;;;4981692;28;20368;-86
2022/06/01 05:19:09;;;;;;;5.88;4.68;;;15.50;60.10;;;;;;4976796;28;20077;-93
2022/06/01 05:21:34;;;;;;;5.32;4.63;;;15.50;60.20;;;;;;4979495;28;20493;-84
2022/06/01 05:24:00;;;;;;;5.78;4.60;;;15.50;60.20;;;;;;4979568;28;20367;-83
2022/06/01 05:26:26;;;;;;;5.72;4.65;;;15.50;60.20;;;;;;4958607;28;20026;-84
2022/06/01 05:28:52;;;;;;;6.00;5.18;;;15.60;60.30;;;;;;4957091;28;20440;-84
2022/06/01 05:31:19;;;;;;;6.20;5.20;;;15.50;60.20;;;;;;4973504;28;20035;-84
2022/06/01 05:33:45;;;;;;;6.13;5.18;;;15.60;60.30;;;;;;4940938;28;20027;-85
2022/06/01 05:36:15;;;;;;;5.85;5.25;;;15.50;60.30;;;;;;4957409;28;20019;-85
2022/06/01 05:38:42;;;;;;;6.07;5.25;;;15.50;60.30;;;;;;4972903;28;20038;-85
2022/06/01 05:41:08;;;;;;;5.88;5.25;;;15.50;60.30;;;;;;4957458;28;20039;-85
2022/06/01 05:43:34;;;;;;;5.78;4.97;;;15.50;60.30;;;;;;4972213;28;20053;-85
2022/06/01 05:46:00;;;;;;;5.78;5.18;;;15.50;60.30;;;;;;4973228;28;20031;-85
2022/06/01 05:48:26;;;;;;;5.90;5.30;;;15.60;60.40;;;;;;4974134;28;20027;-84
2022/06/01 05:50:52;;;;;;;5.82;5.00;;;15.50;60.30;;;;;;4953764;28;20031;-84
2022/06/01 05:53:18;;;;;;;5.43;4.72;;;15.50;60.30;;;;;;4972207;28;20447;-84
2022/06/01 05:55:43;;;;;;;5.63;4.65;;;15.50;60.30;;;;;;4956764;28;20463;-85
2022/06/01 05:58:24;;;;;;;6.00;4.95;;;15.50;60.30;;;;;;4956534;28;20380;-85
2022/06/01 06:00:52;;;;;;;5.43;4.80;;;15.50;60.50;;;;;;4972950;28;20031;-86
2022/06/01 06:03:19;;;;;;;5.88;5.05;;;15.50;60.30;;;;;;4974270;28;20035;-85
2022/06/01 06:08:30;;;;;;;5.10;4.28;;;15.50;60.40;;;;;;4966183;28;20030;-86
2022/06/01 06:10:56;;;;;;;6.15;4.65;;;15.60;60.40;;;;;;4957313;28;20030;-85
2022/06/01 06:13:22;;;;;;;5.35;4.45;;;15.60;60.50;;;;;;4955893;28;20117;-85
2022/06/01 06:15:48;;;;;;;6.00;4.47;;;15.50;61.10;;;;;;4956710;28;20027;-86
2022/06/01 06:18:14;;;;;;;6.40;4.80;;;15.50;60.40;;;;;;4972155;28;20172;-87
2022/06/01 06:20:44;;;;;;;5.15;4.40;;;15.50;60.40;;;;;;4972262;28;20022;-86
2022/06/01 06:23:12;;;;;;;5.68;4.47;;;15.60;60.50;;;;;;4972087;28;20061;-86
2022/06/01 06:25:39;;;;;;;5.85;4.65;;;15.60;60.40;;;;;;4955744;28;20027;-85
2022/06/01 06:28:05;;;;;;;5.30;4.43;;;15.60;60.50;;;;;;4962974;28;20117;-88
2022/06/01 06:30:31;;;;;;;5.70;4.70;;;15.60;60.40;;;;;;4934948;29;20023;-78
2022/06/01 06:32:56;;;;;;;5.53;4.88;;;15.60;60.40;;;;;;4992463;28;20051;-79
2022/06/01 06:35:22;;;;;;;5.78;4.63;;;15.60;60.40;;;;;;4956045;28;20041;-80
2022/06/01 06:37:48;;;;;;;5.22;4.43;;;15.60;60.40;;;;;;4971287;28;20085;-86
2022/06/01 06:40:14;;;;;;;5.50;4.32;;;15.60;60.40;;;;;;4972897;28;20023;-86
2022/06/01 06:42:41;;;;;;;5.32;4.40;;;15.60;60.40;;;;;;4956389;28;20034;-87
2022/06/01 06:45:07;;;;;;;5.50;4.60;;;15.60;60.40;;;;;;4963666;28;20022;-86
2022/06/01 06:47:34;;;;;;;4.90;4.13;;;15.60;60.40;;;;;;4957986;28;20053;-84
2022/06/01 06:50:01;;;;;;;5.32;4.43;;;15.60;60.40;;;;;;4971829;28;20015;-85
2022/06/01 06:52:27;;;;;;;5.30;4.20;;;15.70;60.40;;;;;;4957441;28;20045;-89
2022/06/01 06:54:53;;;;;;;4.78;4.00;;;15.60;60.40;;;;;;4956639;28;20452;-89
2022/06/01 06:57:19;;;;;;;4.72;3.97;;;15.70;60.40;;;;;;4956348;28;20023;-90
2022/06/01 06:59:45;;;;;;;4.75;3.88;;;15.70;60.40;;;;;;4955996;28;20038;-89
2022/06/01 07:02:11;;;;;;;5.38;3.83;;;15.70;60.40;;;;;;4956326;28;20406;-90
2022/06/01 07:04:37;;;;;;;4.60;3.72;;;15.70;60.40;;;;;;4972623;28;20038;-90
2022/06/01 07:07:03;;;;;;;4.45;3.92;;;15.70;60.40;;;;;;4933102;29;20034;-89
2022/06/01 07:09:29;;;;;;;4.88;3.85;;;15.70;60.40;;;;;;4971203;28;20027;-90
2022/06/01 07:11:55;;;;;;;4.50;3.85;;;15.70;60.30;;;;;;4959769;28;20042;-89
2022/06/01 07:14:20;;;;;;;4.60;3.42;;;15.70;60.40;;;;;;4976341;28;20030;-89
2022/06/01 07:16:46;;;;;;;4.55;3.40;;;15.70;60.40;;;;;;4978347;28;20023;-89
2022/06/01 07:19:14;;;;;;;4.65;3.70;;;15.70;60.30;;;;;;4939599;28;20417;-89
2022/06/01 07:21:41;;;;;;;4.43;3.53;;;15.80;60.40;;;;;;4971965;28;20039;-88
2022/06/01 07:24:08;;;;;;;4.90;3.88;;;15.80;60.40;;;;;;4941398;28;20035;-89
2022/06/01 07:26:41;;;;;;;4.50;3.70;;;15.80;60.50;;;;;;4976215;28;20031;-88
2022/06/01 07:29:08;;;;;;;4.70;3.28;;;15.80;60.50;;;;;;4971795;28;20027;-87
2022/06/01 07:31:34;;;;;;;4.75;3.60;;;15.90;60.50;;;;;;4971202;28;20471;-88
2022/06/01 07:34:00;;;;;;;4.45;3.50;;;15.90;60.50;;;;;;4971537;28;20059;-88
2022/06/01 07:36:27;;;;;;;4.40;3.28;;;15.90;60.50;;;;;;4956198;28;20038;-89
2022/06/01 07:44:42;;;;;;;4.03;3.13;;;16.00;60.50;;;;;;4959482;28;20235;-90
2022/06/01 07:47:09;;;;;;;3.85;3.20;;;16.00;60.30;;;;;;4976312;28;20134;-90
2022/06/01 07:49:37;;;;;;;4.10;3.20;;;16.10;60.40;;;;;;4967172;28;20058;-91
2022/06/01 07:52:04;;;;;;;4.00;3.13;;;16.10;60.40;;;;;;4934718;28;20031;-91
2022/06/01 07:54:34;;;;;;;3.67;3.03;;;16.10;60.30;;;;;;4971638;28;20027;-91
2022/06/01 07:57:00;;;;;;;3.45;2.85;;;16.20;60.30;;;;;;4972199;28;20114;-92
2022/06/01 07:59:26;;;;;;;3.28;2.80;;;16.30;60.20;;;;;;4973079;28;20062;-90
2022/06/01 08:01:52;;;;;;;3.65;2.95;;;16.30;60.20;;;;;;4952052;28;20039;-89
2022/06/01 08:04:19;;;;;;;4.40;3.10;;;16.30;60.10;;;;;;4928064;28;20112;-90
2022/06/01 08:06:44;;;;;;;3.13;2.65;;;16.40;60.10;;;;;;4977770;28;20093;-90
2022/06/01 08:09:10;;;;;;;3.72;2.70;;;16.40;59.90;;;;;;4943468;29;20257;-90
2022/06/01 08:14:21;;;;;;;3.28;2.95;;;16.50;59.90;;;;;;4975350;28;20039;-90
2022/06/01 08:16:47;;;;;;;3.28;2.88;;;16.60;59.80;;;;;;4961153;28;20030;-90
2022/06/01 08:19:19;;;;;;;2.83;2.53;;;16.70;59.80;;;;;;4979503;28;20296;-89
2022/06/01 08:21:51;;;;;;;2.50;2.28;;;16.70;59.70;;;;;;4979425;28;20022;-92
2022/06/01 08:24:17;;;;;;;2.85;2.42;;;16.80;59.70;;;;;;4958063;28;20035;-92
2022/06/01 08:26:46;;;;;;;3.30;2.50;;;16.80;59.60;;;;;;4976002;28;20081;-91
2022/06/01 08:29:12;;;;;;;3.38;2.45;;;16.90;59.60;;;;;;4949721;28;20498;-92
2022/06/01 08:31:40;;;;;;;2.85;2.08;;;16.90;59.50;;;;;;4973754;28;20033;-88
2022/06/01 08:34:15;;;;;;;2.78;2.40;;;17.00;59.50;;;;;;4974357;28;20043;-88
2022/06/01 08:36:52;;;;;;;2.88;2.42;;;17.10;59.50;;;;;;4974914;28;20019;-92
2022/06/01 08:39:23;;;;;;;3.17;2.50;;;17.10;59.40;;;;;;4940404;29;20036;-93
2022/06/01 08:42:10;;;;;;;2.70;2.10;;;17.20;59.40;;;;;;4958924;28;20522;-92
2022/06/01 08:45:26;;;;;;;3.03;2.42;;;17.30;59.30;;;;;;4973928;28;20463;-92
2022/06/01 08:48:04;;;;;;;2.90;2.10;;;17.30;59.20;;;;;;4958587;28;20031;-91
2022/06/01 08:50:38;;;;;;;2.10;1.90;;;17.40;59.10;;;;;;4968985;28;20031;-92
2022/06/01 08:53:21;;;;;;;2.40;2.00;;;17.50;59.10;;;;;;4959851;28;20035;-91
2022/06/01 08:56:40;;;;;;;2.63;2.08;;;17.60;59.10;;;;;;4984929;28;20140;-93
2022/06/01 08:59:45;;;;;;;2.60;2.15;;;17.60;59.10;;;;;;4976037;28;20049;-93
2022/06/01 09:03:17;;;;;;;2.63;2.30;;;17.70;58.90;;;;;;4975647;28;20039;-93
2022/06/01 09:06:25;;;;;;;2.30;2.03;;;17.80;58.90;;;;;;4935794;29;20079;-91
2022/06/01 09:09:59;;;;;;;1.92;1.77;;;17.90;58.90;;;;;;4949297;29;20414;-92
2022/06/01 09:12:57;;;;;;;2.00;1.80;;;18.00;58.80;;;;;;4974298;28;20047;-92
2022/06/01 09:15:56;;;;;;;1.80;1.70;;;18.10;58.60;;;;;;4958737;28;20023;-93
2022/06/01 09:18:29;;;;;;;1.75;1.65;;;18.20;58.60;;;;;;4936671;28;20037;-89
2022/06/01 09:23:42;;;;;;;2.42;2.00;;;18.40;58.50;;;;;;4981605;28;20050;-83
2022/06/01 09:26:09;;;;;;;1.95;1.73;;;18.50;58.40;;;;;;4956989;28;20035;-82
2022/06/01 09:28:43;;;;;;;1.85;1.58;;;18.60;58.40;;;;;;4969167;28;20023;-82
2022/06/01 09:31:26;;;;;;;1.92;1.70;;;18.60;58.30;;;;;;4956480;28;20022;-80
2022/06/01 09:33:51;;;;;;;1.92;1.65;;;18.70;58.30;;;;;;4956247;28;20035;-79
2022/06/01 09:36:28;;;;;;;1.70;1.60;;;18.80;58.10;;;;;;4931797;28;20472;-80
2022/06/01 09:38:56;;;;;;;1.60;1.50;;;18.90;58.10;;;;;;4953931;28;20066;-81
2022/06/01 09:41:31;;;;;;;1.73;1.63;;;19.00;58.00;;;;;;4971459;28;20347;-80
2022/06/01 09:44:18;;;;;;;2.22;2.00;;;19.10;58.00;;;;;;4953650;28;20073;-81
2022/06/01 09:46:47;;;;;;;1.50;1.40;;;19.10;58.00;;;;;;4972060;28;20082;-82
2022/06/01 09:49:25;;;;;;;1.73;1.63;;;19.20;57.80;;;;;;4971654;28;20027;-80
2022/06/01 09:52:13;;;;;;;1.70;1.60;;;19.30;57.80;;;;;;4955703;28;20169;-80
2022/06/01 09:54:44;;;;;;;1.70;1.60;;;19.30;57.70;;;;;;4966265;28;20089;-82
2022/06/01 09:57:27;;;;;;;1.90;1.70;;;19.40;57.50;;;;;;4977330;28;20029;-85
2022/06/01 10:08:29;;;;;;;2.47;1.85;;;19.60;57.20;;;;;;4970149;28;20034;-80
2022/06/01 10:11:05;;;;;;;2.10;1.90;;;19.70;57.30;;;;;;4955693;28;20034;-79
2022/06/01 10:13:49;;;;;;;1.88;1.73;;;19.70;57.20;;;;;;4973333;28;20057;-84
2022/06/01 10:16:35;;;;;;;2.07;1.80;;;19.70;57.30;;;;;;4955316;28;20031;-84
2022/06/01 10:19:03;;;;;;;2.03;1.73;;;19.80;57.40;;;;;;4983577;28;20031;-82
2022/06/01 10:21:50;;;;;;;1.67;1.58;;;19.80;57.30;;;;;;4958125;28;20508;-82
2022/06/01 10:24:24;;;;;;;1.83;1.65;;;19.80;57.40;;;;;;4971351;28;20039;-85
2022/06/01 10:26:59;;;;;;;1.98;1.73;;;19.90;57.40;;;;;;4955733;28;20034;-83
2022/06/01 10:29:34;;;;;;;2.22;1.70;;;19.90;57.40;;;;;;4937397;29;20035;-83
2022/06/01 10:32:10;;;;;;;2.30;2.00;;;20.00;57.50;;;;;;4971498;28;20042;-83
2022/06/01 10:34:39;;;;;;;2.00;1.80;;;19.90;57.40;;;;;;4971838;28;20451;-85
2022/06/01 10:37:11;;;;;;;1.90;1.65;;;20.00;57.40;;;;;;4955099;28;20035;-82
2022/06/01 10:40:00;;;;;;;1.88;1.60;;;20.00;57.40;;;;;;4971121;28;20030;-84
2022/06/01 10:45:45;;;;;;;2.20;1.80;;;20.10;57.40;;;;;;4977454;28;20050;-85
2022/06/01 10:48:51;;;;;;;1.70;1.60;;;20.10;57.30;;;;;;4972231;28;20113;-84
2022/06/01 10:51:26;;;;;;;1.65;1.55;;;20.10;57.40;;;;;;4942943;28;20479;-88
2022/06/01 10:54:07;;;;;;;1.70;1.60;;;20.20;57.20;;;;;;4955967;28;20184;-86
2022/06/01 10:56:36;;;;;;;2.05;1.77;;;20.20;57.20;;;;;;4965379;28;20027;-86
2022/06/01 10:59:05;;;;;;;1.80;1.55;;;20.20;57.10;;;;;;4959630;28;20042;-84
2022/06/01 11:01:57;;;;;;;1.85;1.70;;;20.30;57.20;;;;;;4985597;28;20023;-85
2022/06/01 11:04:55;;;;;;;2.25;2.05;;;20.30;57.20;;;;;;4962210;28;20456;-85
2022/06/01 11:07:40;;;;;;;1.75;1.50;;;20.30;57.20;;;;;;4955343;28;20034;-87
2022/06/01 11:10:54;;;;;;;2.30;1.65;;;20.30;57.20;;;;;;4976833;28;20072;-85
2022/06/01 11:13:45;;;;;;;2.23;1.63;;;20.30;57.20;;;;;;4973890;28;20460;-85
2022/06/01 11:16:18;;;;;;;1.80;1.60;;;20.30;57.10;;;;;;4957119;28;20019;-85
2022/06/01 11:19:12;;;;;;;2.25;1.73;;;20.40;57.10;;;;;;4956049;28;20567;-87
2022/06/01 11:21:55;;;;;;;1.67;1.58;;;20.30;57.10;;;;;;4953939;28;20042;-84
2022/06/01 11:24:31;;;;;;;1.85;1.75;;;20.40;57.20;;;;;;4974470;28;20062;-86
2022/06/01 11:27:22;;;;;;;1.83;1.60;;;20.30;57.10;;;;;;4957616;28;20022;-87
2022/06/01 11:30:06;;;;;;;2.00;1.63;;;20.40;57.20;;;;;;4966835;28;20027;-85
2022/06/01 11:32:55;;;;;;;1.50;1.40;;;20.40;57.20;;;;;;4957336;28;20065;-84
2022/06/01 11:35:42;;;;;;;1.67;1.58;;;20.30;57.10;;;;;;4948310;28;20026;-87
2022/06/01 11:38:35;;;;;;;1.83;1.40;;;20.30;57.10;;;;;;4954890;28;20468;-86
2022/06/01 11:41:18;;;;;;;1.67;1.33;;;20.40;57.20;;;;;;4965002;28;20031;-85
2022/06/01 11:43:47;;;;;;;1.40;1.30;;;20.40;57.10;;;;;;4960093;28;20109;-89
2022/06/01 11:46:33;;;;;;;2.05;1.65;;;20.30;57.10;;;;;;4960301;28;20169;-84
2022/06/01 11:49:13;;;;;;;2.00;1.67;;;20.30;57.10;;;;;;4959709;28;20110;-87
2022/06/01 11:51:48;;;;;;;2.33;1.60;;;20.30;57.20;;;;;;4994758;28;20510;-84
2022/06/01 11:54:30;;;;;;;1.60;1.40;;;20.30;57.10;;;;;;4957944;28;20046;-84
2022/06/01 11:57:16;;;;;;;1.60;1.50;;;20.30;57.90;;;;;;4973713;28;20058;-84
2022/06/01 12:00:03;;;;;;;;;;;20.30;57.20;;;;;;4983961;28;20078;-84
2022/06/01 12:02:41;;;;;;;1.48;1.30;;;20.30;57.80;;;;;;4973927;28;19906;-85
2022/06/01 12:05:09;;;;;;;;;;;20.30;57.10;;;;;;4974935;28;20542;-84
2022/06/01 12:07:45;;;;;;;1.40;1.30;;;20.30;57.20;;;;;;4958222;28;19924;-83
2022/06/01 12:10:32;;;;;;;1.75;1.60;;;20.20;57.20;;;;;;4973924;28;20031;-84
2022/06/01 12:13:03;;;;;;;1.55;1.45;;;20.20;57.40;;;;;;4984450;28;20058;-82
2022/06/01 12:15:38;;;;;;;1.83;1.67;;;20.20;57.40;;;;;;4973884;28;20031;-82
2022/06/01 12:18:14;;;;;;;1.90;1.75;;;20.30;57.50;;;;;;4974437;28;20166;-82
2022/06/01 12:20:44;;;;;;;1.77;1.65;;;20.30;57.50;;;;;;4958552;28;20035;-82
2022/06/01 12:28:51;;;;;;;2.13;1.80;;;20.30;57.50;;;;;;4966249;28;20080;-83
2022/06/01 12:31:19;;;;;;;1.75;1.58;;;20.30;57.50;;;;;;4968001;28;20026;-82
2022/06/01 12:34:03;;;;;;;2.20;1.80;;;20.30;57.50;;;;;;4973440;28;20078;-84
2022/06/01 12:36:45;;;;;;;2.28;1.70;;;20.30;57.60;;;;;;4972768;28;20038;-83
2022/06/01 12:39:17;;;;;;;2.17;1.77;;;20.40;58.20;;;;;;4957585;28;20035;-83
2022/06/01 12:41:47;;;;;;;2.03;1.70;;;20.40;57.50;;;;;;4973184;28;20412;-83
2022/06/01 12:44:15;;;;;;;1.98;1.67;;;20.40;57.50;;;;;;4965286;28;20023;-82
2022/06/01 12:46:45;;;;;;;1.90;1.70;;;20.40;57.50;;;;;;4956650;28;20027;-83
2022/06/01 12:49:33;;;;;;;2.13;1.75;;;20.40;57.50;;;;;;4956609;28;20373;-83
2022/06/01 12:52:20;;;;;;;2.08;1.70;;;20.50;57.70;;;;;;4972823;28;20041;-81
2022/06/01 12:54:59;;;;;;;1.65;1.55;;;20.50;57.50;;;;;;4939915;29;20042;-82
2022/06/01 12:57:33;;;;;;;1.67;1.52;;;20.50;57.50;;;;;;4956800;28;20026;-83
2022/06/01 13:00:17;;;;;;;1.67;1.50;;;20.50;57.40;;;;;;4973162;28;20085;-82
2022/06/01 13:02:43;;;;;;;1.38;1.27;;;20.50;57.40;;;;;;4977797;28;20110;-84
2022/06/01 13:05:18;;;;;;;1.48;1.38;;;20.50;57.30;;;;;;4977664;28;20372;-83
2022/06/01 13:07:48;;;;;;;1.33;1.23;;;20.60;57.30;;;;;;4946186;29;20041;-80
2022/06/01 13:10:29;;;;;;;2.05;1.40;;;20.60;57.20;;;;;;4969131;28;20093;-82
2022/06/01 13:13:09;;;;;;;1.30;1.20;;;20.60;57.20;;;;;;4941859;28;20054;-81
2022/06/01 13:15:36;;;;;;;1.60;1.30;;;20.60;57.10;;;;;;4954585;28;20130;-83
2022/06/01 13:18:07;;;;;;;1.15;1.10;;;20.60;57.00;;;;;;4953745;29;20452;-83
2022/06/01 13:20:33;;;;;;;1.00;1.00;;;20.60;56.90;;;;;;4953540;28;20489;-83
2022/06/01 13:23:00;;;;;;;1.00;1.00;;;20.70;56.90;;;;;;4956010;28;20058;-82
2022/06/01 13:25:33;;;;;;;1.25;1.15;;;20.70;56.90;;;;;;4955936;28;20034;-83
2022/06/01 13:27:59;;;;;;;1.10;1.00;;;20.70;56.90;;;;;;4956937;28;20033;-83
2022/06/01 13:30:29;;;;;;;1.15;1.05;;;20.80;57.50;;;;;;4972502;28;20062;-83
2022/06/01 13:32:57;;;;;;;0.85;0.85;;;20.80;56.80;;;;;;4973682;28;20042;-83
2022/06/01 13:35:54;;;;;;;1.10;1.05;;;20.80;56.70;;;;;;4956611;28;20387;-82
2022/06/01 13:38:23;;;;;;;0.85;0.85;;;20.80;56.80;;;;;;4949123;28;20379;-82
2022/06/01 13:41:21;;;;;;;0.90;0.90;;;20.80;56.70;;;;;;4956423;28;20007;-82
2022/06/01 13:43:50;;;;;;;1.05;0.93;;;20.80;56.80;;;;;;4950417;28;20041;-84
2022/06/01 13:46:29;;;;;;;1.13;1.02;;;20.90;56.60;;;;;;4971598;28;20050;-82
2022/06/01 13:48:55;;;;;;;1.40;1.00;;;20.90;56.60;;;;;;4972167;28;20043;-82
2022/06/01 13:51:55;;;;;;;0.90;0.90;;;20.90;56.50;;;;;;4971986;28;20027;-82